»·PEaware :: AMX684 KLAS-KSFO

AMX684 :: KLAS-KSFO

FLIGHT INFORMATION

Flight Status: Arrived
Operator:
Aeromexico
More flights by this operator :: More flights under this callsign
Pilot: Alfredo R. (12181)
Aircraft: BOEING 737-800
(B738)
More flights by this aircraft type
Origin: KLAS McCarran Intl
United States
Destination: KSFO San Francisco Intl
United States
More flights between these airports :: More routes between these airports
Route: SHEAD1 KENNO RUSME DYAMD3
File this flight plan on PilotEdge
Remarks:
Altitude:
(Current/Filed)
26,000ft
Speed:
(Current/Filed)
450kts
Departed: 12-Oct-17 08:33 PM
Arrived: 12-Oct-17 09:46 PM
Distance/Time
Traveled:
359nm/1:13
Distance/Time
To Go:
Arrived

Flight Plot

Page will automatically refresh every two minutes.

Flight plan parsing failed; only flown route is shown


Map Options




Map Legend


Flown Route
Filed Route
Departure Airport
Arrival Airport
Navaid (VOR, NDB)
Fix

Horizontal Profiles

Position Reports

Time Latitude Longitude Heading Altitude Ground
Speed
12-Oct-17 20:04 36.079845 -115.139537 355 2148ft 0kts
12-Oct-17 20:05 36.079845 -115.139537 355 2148ft 0kts
12-Oct-17 20:06 36.079845 -115.139537 355 2148ft 0kts
12-Oct-17 20:07 36.079845 -115.139537 355 2148ft 0kts
12-Oct-17 20:08 36.079845 -115.139537 355 2148ft 0kts
12-Oct-17 20:09 36.079845 -115.139537 355 2148ft 0kts
12-Oct-17 20:10 36.079845 -115.139537 355 2148ft 0kts
12-Oct-17 20:11 36.079845 -115.139537 355 2148ft 0kts
12-Oct-17 20:12 36.079845 -115.139537 355 2148ft 0kts
12-Oct-17 20:13 36.079845 -115.139537 355 2148ft 0kts
12-Oct-17 20:14 36.079619 -115.139514 350 2149ft 1kts
12-Oct-17 20:15 36.079374 -115.139322 314 2149ft 1kts
12-Oct-17 20:16 36.079270 -115.139014 246 2148ft 1kts
12-Oct-17 20:17 36.079297 -115.138961 226 2148ft 0kts
12-Oct-17 20:18 36.079297 -115.138961 226 2148ft 0kts
12-Oct-17 20:19 36.079297 -115.138961 226 2148ft 0kts
12-Oct-17 20:20 36.079297 -115.138961 226 2148ft 0kts
12-Oct-17 20:21 36.079297 -115.138961 226 2148ft 0kts
12-Oct-17 20:22 36.079297 -115.138961 226 2148ft 0kts
12-Oct-17 20:23 36.079297 -115.138961 226 2148ft 0kts
12-Oct-17 20:24 36.079297 -115.138961 226 2148ft 0kts
12-Oct-17 20:25 36.079297 -115.138961 226 2148ft 0kts
12-Oct-17 20:26 36.079297 -115.138961 226 2148ft 0kts
12-Oct-17 20:27 36.079283 -115.138979 226 2148ft 0kts
12-Oct-17 20:28 36.078953 -115.139399 224 2149ft 3kts
12-Oct-17 20:29 36.078280 -115.139199 106 2148ft 3kts
12-Oct-17 20:30 36.078251 -115.137124 90 2148ft 7kts
12-Oct-17 20:31 36.078249 -115.133851 89 2149ft 12kts
12-Oct-17 20:31 36.078260 -115.129875 90 2149ft 15kts
12-Oct-17 20:33 36.078264 -115.124418 89 2148ft 12kts
12-Oct-17 20:34 36.077474 -115.121581 137 2148ft 0kts
12-Oct-17 20:34 36.077390 -115.121491 141 2148ft 1kts
12-Oct-17 20:36 36.076403 -115.121975 268 2148ft 6kts
12-Oct-17 20:37 36.076396 -115.126592 270 2148ft 32kts
12-Oct-17 20:37 36.076394 -115.155556 270 2174ft 172kts
12-Oct-17 20:38 36.076915 -115.213915 272 4135ft 174kts
12-Oct-17 20:39 36.052172 -115.263161 203 5235ft 236kts
12-Oct-17 20:40 35.983626 -115.295777 202 6985ft 277kts
12-Oct-17 20:41 35.925333 -115.356988 225 8891ft 282kts
12-Oct-17 20:42 35.887143 -115.436899 268 9848ft 296kts
12-Oct-17 20:43 35.888371 -115.540040 270 11038ft 313kts
12-Oct-17 20:44 35.890554 -115.651039 269 12569ft 299kts
12-Oct-17 20:45 35.892274 -115.758172 269 14946ft 314kts
12-Oct-17 20:46 35.893975 -115.864889 268 18082ft 316kts
12-Oct-17 20:47 35.903088 -115.973099 291 20812ft 336kts
12-Oct-17 20:48 35.970754 -116.058373 309 23225ft 360kts
12-Oct-17 20:49 36.044422 -116.143313 308 25499ft 368kts
12-Oct-17 20:50 36.120998 -116.232264 308 26086ft 400kts
12-Oct-17 20:51 36.204638 -116.329129 309 26067ft 415kts
12-Oct-17 20:52 36.288396 -116.426052 308 26059ft 410kts
12-Oct-17 20:53 36.371457 -116.522246 309 26061ft 412kts
12-Oct-17 20:54 36.455070 -116.618931 308 26061ft 411kts
12-Oct-17 20:55 36.537595 -116.715926 308 26076ft 411kts
12-Oct-17 20:56 36.631349 -116.800033 320 26076ft 424kts
12-Oct-17 20:57 36.730836 -116.875626 319 26077ft 422kts
12-Oct-17 20:58 36.830708 -116.952133 319 26077ft 421kts
12-Oct-17 20:59 36.930202 -117.028452 319 26074ft 421kts
12-Oct-17 21:00 37.030150 -117.105005 319 26073ft 421kts
12-Oct-17 21:01 37.129621 -117.181168 320 26193ft 422kts
12-Oct-17 21:02 37.229452 -117.257606 319 26193ft 421kts
12-Oct-17 21:03 37.325411 -117.337747 310 26204ft 406kts
12-Oct-17 21:04 37.410589 -117.430296 310 26193ft 407kts
12-Oct-17 21:05 37.491250 -117.526877 292 26191ft 386kts
12-Oct-17 21:06 37.505338 -117.654005 268 26134ft 370kts
12-Oct-17 21:07 37.511583 -117.783025 270 26148ft 368kts
12-Oct-17 21:08 37.519258 -117.911098 270 26151ft 368kts
12-Oct-17 21:09 37.527240 -118.039715 271 26146ft 368kts
12-Oct-17 21:10 37.535390 -118.167626 271 26144ft 368kts
12-Oct-17 21:11 37.543621 -118.296017 271 26143ft 365kts
12-Oct-17 21:12 37.551940 -118.422719 271 26143ft 363kts
12-Oct-17 21:13 37.560421 -118.549310 271 26257ft 363kts
12-Oct-17 21:14 37.568902 -118.674266 271 26270ft 362kts
12-Oct-17 21:15 37.577483 -118.801132 271 26277ft 369kts
12-Oct-17 21:16 37.586418 -118.929161 271 26268ft 368kts
12-Oct-17 21:17 37.595493 -119.057249 271 26266ft 368kts
12-Oct-17 21:18 37.604713 -119.185310 271 26263ft 368kts
12-Oct-17 21:19 37.614072 -119.313702 272 26261ft 372kts
12-Oct-17 21:20 37.623669 -119.443564 272 26259ft 371kts
12-Oct-17 21:21 37.633439 -119.573259 272 26256ft 371kts
12-Oct-17 21:22 37.643180 -119.701982 272 26200ft 373kts
12-Oct-17 21:23 37.653168 -119.831634 272 26136ft 370kts
12-Oct-17 21:24 37.663384 -119.961215 272 26148ft 371kts
12-Oct-17 21:25 37.673642 -120.090779 272 26146ft 371kts
12-Oct-17 21:26 37.684105 -120.220270 272 26144ft 371kts
12-Oct-17 21:27 37.694618 -120.348973 273 26144ft 371kts
12-Oct-17 21:28 37.692126 -120.472024 260 25628ft 340kts
12-Oct-17 21:29 37.677880 -120.587028 260 24056ft 338kts
12-Oct-17 21:30 37.664088 -120.703753 260 22553ft 337kts
12-Oct-17 21:31 37.650180 -120.820763 261 21094ft 342kts
12-Oct-17 21:32 37.636085 -120.937360 261 19606ft 343kts
12-Oct-17 21:33 37.621020 -121.052445 261 18161ft 347kts
12-Oct-17 21:34 37.605492 -121.167830 261 16686ft 337kts
12-Oct-17 21:36 37.590778 -121.278995 263 15144ft 317kts
12-Oct-17 21:37 37.578490 -121.385688 263 13642ft 303kts
12-Oct-17 21:38 37.566698 -121.487291 263 12434ft 295kts
12-Oct-17 21:39 37.555175 -121.586931 263 11203ft 282kts
12-Oct-17 21:40 37.538257 -121.678689 254 10031ft 278kts
12-Oct-17 21:41 37.516158 -121.770033 255 8848ft 272kts
12-Oct-17 21:42 37.495136 -121.857511 255 8003ft 252kts
12-Oct-17 21:43 37.474041 -121.939031 253 7681ft 260kts
12-Oct-17 21:44 37.470393 -122.020289 296 6351ft 229kts
12-Oct-17 21:45 37.496904 -122.086504 299 5316ft 203kts
12-Oct-17 21:46 37.521973 -122.145586 299 4185ft 193kts
12-Oct-17 21:47 37.546698 -122.204012 300 2840ft 194kts
12-Oct-17 21:48 37.570256 -122.259671 299 1829ft 172kts
12-Oct-17 21:49 37.590581 -122.308166 300 919ft 140kts
12-Oct-17 21:50 37.607695 -122.348765 297 231ft 131kts
12-Oct-17 21:51 37.618251 -122.373981 296 21ft 35kts
12-Oct-17 21:52 37.618779 -122.378791 247 20ft 5kts
12-Oct-17 21:53 37.617237 -122.379454 184 21ft 8kts
12-Oct-17 21:54 37.615500 -122.381167 297 21ft 9kts
12-Oct-17 21:55 37.615623 -122.382546 225 21ft 0kts
12-Oct-17 21:56 37.615519 -122.382676 224 20ft 0kts
12-Oct-17 21:57 37.615537 -122.382653 224 21ft 0kts
12-Oct-17 21:58 37.615537 -122.382653 224 21ft 0kts
12-Oct-17 21:59 37.615537 -122.382653 224 21ft 0kts

Navigation Log

Ident Type
Flight plan parsing failed, navigation log unavailable